Italic G — IBYH — position and weather

sailwx.info

Track history (hours):
 
Tides and Currents Weather Stations Pressure Air Temp Water Temp Dewpoint Dewpoint Depression Visibility Wind Speed Wind Dir Waves Ship Positions

Italic G

Last reported at 2015-Mar-22 17:05 UTC. Time now 2015-Mar-27 15:43 UTC.
Position S 32°33' E 152°40'.

Length 229 m; draft 14.1 m.

Type: Cargo ship. MMSI: 247282300.

Date/timePositionNaut miles runAvg speedWind from/ knotsBaromVisibWave heightAir tempDewpointWater temp
2015-Mar-22 17:05S 32°33' E 152°40'610.7
2015-Mar-22 16:33S 32°37' E 152°36'1110.6
2015-Mar-22 15:33S 32°45' E 152°26'1111.0
2015-Mar-22 14:33S 32°51' E 152°16'1211.6
2015-Mar-22 13:33S 32°56' E 152°03'1110.9
2015-Mar-22 12:31S 32°59' E 151°50'5 5.4
2015-Mar-22 11:33S 32°54' E 151°46'2 1.4
2015-Mar-22 10:28S 32°53' E 151°45'0 0.0
2015-Mar-22 09:28S 32°53' E 151°45'0 0.0
2015-Mar-22 08:28S 32°53' E 151°45'0 0.0
2015-Mar-22 07:28S 32°53' E 151°45'0 0.0
2015-Mar-22 06:22S 32°53' E 151°45'0 0.0
2015-Mar-22 05:16S 32°53' E 151°45'0 0.0
2015-Mar-22 03:16S 32°53' E 151°45'0 0.0
2015-Mar-22 02:28S 32°53' E 151°45'0 0.0
2015-Mar-22 01:28S 32°53' E 151°45'0 0.0
2015-Mar-22 00:28S 32°53' E 151°45'0 0.0
2015-Mar-21 23:28S 32°53' E 151°45'0 0.0
2015-Mar-21 22:31S 32°53' E 151°45'0 0.0
2015-Mar-21 21:28S 32°53' E 151°45'0 0.0
2015-Mar-21 20:28S 32°53' E 151°45'0 0.0
2015-Mar-21 19:28S 32°53' E 151°45'0 0.0
2015-Mar-21 18:28S 32°53' E 151°45'0 0.0
2015-Mar-21 17:22S 32°53' E 151°45'0 0.0
2015-Mar-21 16:28S 32°53' E 151°45'0 0.0
2015-Mar-21 15:28S 32°53' E 151°45'0 0.0
2015-Mar-21 14:28S 32°53' E 151°45'0 0.0
2015-Mar-21 13:22S 32°53' E 151°45'0 0.0
2015-Mar-21 12:34S 32°53' E 151°45'3 2.6
2015-Mar-21 11:33S 32°55' E 151°47'8 0.2
2015-Mar-20 02:06S 33°03' E 151°46'0 0.1
2015-Mar-20 01:33S 33°03' E 151°47'0 0.0
2015-Mar-20 00:24S 33°03' E 151°47'0 0.0
2015-Mar-19 23:33S 33°03' E 151°47'0 0.1
2015-Mar-19 22:33S 33°03' E 151°47'0 0.0
2015-Mar-19 21:29S 33°03' E 151°47'0 0.0
2015-Mar-19 20:29S 33°03' E 151°47'0 0.0
2015-Mar-19 19:23S 33°03' E 151°47'0 0.0
2015-Mar-19 18:23S 33°03' E 151°47'0 0.0
2015-Mar-19 14:11S 33°03' E 151°47'0 0.0
2015-Mar-19 13:29S 33°03' E 151°47'0 0.0
2015-Mar-19 12:30S 33°03' E 151°47'0 0.0
2015-Mar-19 11:32S 33°03' E 151°47'0 0.0
2015-Mar-19 10:29S 33°03' E 151°47'0 0.1
2015-Mar-19 09:32S 33°03' E 151°46'0 0.0
2015-Mar-19 08:29S 33°03' E 151°46'0 0.0
2015-Mar-18 17:30S 33°03' E 151°47'0 0.0
2015-Mar-18 12:29S 33°03' E 151°47'0 0.0
2015-Mar-18 11:30S 33°03' E 151°47'0 0.0
2015-Mar-18 10:17S 33°03' E 151°47'0 0.0
2015-Mar-18 06:18S 33°03' E 151°46'0 0.0
2015-Mar-17 23:29S 33°03' E 151°46'  
2015-Mar-15 05:33S 33°01' E 151°57'8 7.8
2015-Mar-15 04:34S 32°57' E 152°05'8 7.8
2015-Mar-15 03:34S 32°55' E 152°14'6 6.1
2015-Mar-15 02:33S 32°53' E 152°21'6 5.5
2015-Mar-15 01:33S 32°48' E 152°25'4 4.2
2015-Mar-15 00:33S 32°45' E 152°28'5 5.3
2015-Mar-14 23:33S 32°41' E 152°32'6 6.0
2015-Mar-14 22:33S 32°36' E 152°36'6 6.3
2015-Mar-14 21:33S 32°31' E 152°41'9 9.0
2015-Mar-14 20:33S 32°24' E 152°47'1010.3
2015-Mar-14 19:33S 32°16' E 152°55'1010.3
2015-Mar-14 18:32S 32°08' E 153°02'1611.9
2015-Mar-14 17:11S 31°52' E 153°08'711.6
2015-Mar-14 16:34S 31°45' E 153°11'1211.6
2015-Mar-14 15:33S 31°34' E 153°15'  
Track history (hours):
 
Tides and Currents Weather Stations Pressure Air Temp Water Temp Dewpoint Dewpoint Depression Visibility Wind Speed Wind Dir Waves Ship Positions

Italic G

Last reported at 2015-Mar-22 17:05 UTC. Time now 2015-Mar-27 15:43 UTC.
Position S 32°33' E 152°40'.

Length 229 m; draft 14.1 m.

Type: Cargo ship. MMSI: 247282300.

Date/timePositionNaut miles runAvg speedWind from/ knotsBaromVisibWave heightAir tempDewpointWater temp
2015-Mar-22 17:05S 32°33' E 152°40'610.7
2015-Mar-22 16:33S 32°37' E 152°36'1110.6
2015-Mar-22 15:33S 32°45' E 152°26'1111.0
2015-Mar-22 14:33S 32°51' E 152°16'1211.6
2015-Mar-22 13:33S 32°56' E 152°03'1110.9
2015-Mar-22 12:31S 32°59' E 151°50'5 5.4
2015-Mar-22 11:33S 32°54' E 151°46'2 1.4
2015-Mar-22 10:28S 32°53' E 151°45'0 0.0
2015-Mar-22 09:28S 32°53' E 151°45'0 0.0
2015-Mar-22 08:28S 32°53' E 151°45'0 0.0
2015-Mar-22 07:28S 32°53' E 151°45'0 0.0
2015-Mar-22 06:22S 32°53' E 151°45'0 0.0
2015-Mar-22 05:16S 32°53' E 151°45'0 0.0
2015-Mar-22 03:16S 32°53' E 151°45'0 0.0
2015-Mar-22 02:28S 32°53' E 151°45'0 0.0
2015-Mar-22 01:28S 32°53' E 151°45'0 0.0
2015-Mar-22 00:28S 32°53' E 151°45'0 0.0
2015-Mar-21 23:28S 32°53' E 151°45'0 0.0
2015-Mar-21 22:31S 32°53' E 151°45'0 0.0
2015-Mar-21 21:28S 32°53' E 151°45'0 0.0
2015-Mar-21 20:28S 32°53' E 151°45'0 0.0
2015-Mar-21 19:28S 32°53' E 151°45'0 0.0
2015-Mar-21 18:28S 32°53' E 151°45'0 0.0
2015-Mar-21 17:22S 32°53' E 151°45'0 0.0
2015-Mar-21 16:28S 32°53' E 151°45'0 0.0
2015-Mar-21 15:28S 32°53' E 151°45'0 0.0
2015-Mar-21 14:28S 32°53' E 151°45'0 0.0
2015-Mar-21 13:22S 32°53' E 151°45'0 0.0
2015-Mar-21 12:34S 32°53' E 151°45'3 2.6
2015-Mar-21 11:33S 32°55' E 151°47'8 0.2
2015-Mar-20 02:06S 33°03' E 151°46'0 0.1
2015-Mar-20 01:33S 33°03' E 151°47'0 0.0
2015-Mar-20 00:24S 33°03' E 151°47'0 0.0
2015-Mar-19 23:33S 33°03' E 151°47'0 0.1
2015-Mar-19 22:33S 33°03' E 151°47'0 0.0
2015-Mar-19 21:29S 33°03' E 151°47'0 0.0
2015-Mar-19 20:29S 33°03' E 151°47'0 0.0
2015-Mar-19 19:23S 33°03' E 151°47'0 0.0
2015-Mar-19 18:23S 33°03' E 151°47'0 0.0
2015-Mar-19 14:11S 33°03' E 151°47'0 0.0
2015-Mar-19 13:29S 33°03' E 151°47'0 0.0
2015-Mar-19 12:30S 33°03' E 151°47'0 0.0
2015-Mar-19 11:32S 33°03' E 151°47'0 0.0
2015-Mar-19 10:29S 33°03' E 151°47'0 0.1
2015-Mar-19 09:32S 33°03' E 151°46'0 0.0
2015-Mar-19 08:29S 33°03' E 151°46'0 0.0
2015-Mar-18 17:30S 33°03' E 151°47'0 0.0
2015-Mar-18 12:29S 33°03' E 151°47'0 0.0
2015-Mar-18 11:30S 33°03' E 151°47'0 0.0
2015-Mar-18 10:17S 33°03' E 151°47'0 0.0
2015-Mar-18 06:18S 33°03' E 151°46'0 0.0
2015-Mar-17 23:29S 33°03' E 151°46'  
2015-Mar-15 05:33S 33°01' E 151°57'8 7.8
2015-Mar-15 04:34S 32°57' E 152°05'8 7.8
2015-Mar-15 03:34S 32°55' E 152°14'6 6.1
2015-Mar-15 02:33S 32°53' E 152°21'6 5.5
2015-Mar-15 01:33S 32°48' E 152°25'4 4.2
2015-Mar-15 00:33S 32°45' E 152°28'5 5.3
2015-Mar-14 23:33S 32°41' E 152°32'6 6.0
2015-Mar-14 22:33S 32°36' E 152°36'6 6.3
2015-Mar-14 21:33S 32°31' E 152°41'9 9.0
2015-Mar-14 20:33S 32°24' E 152°47'1010.3
2015-Mar-14 19:33S 32°16' E 152°55'1010.3
2015-Mar-14 18:32S 32°08' E 153°02'1611.9
2015-Mar-14 17:11S 31°52' E 153°08'711.6
2015-Mar-14 16:34S 31°45' E 153°11'1211.6
2015-Mar-14 15:33S 31°34' E 153°15'  

Dump ship's entire track history